Time;durP1;ratioP1;P1;durP2;ratioP2;P2;SDS_P1;SDS_P2;PMS_P1;PMS_P2;Temp;Humidity;BMP_temperature;BMP_pressure;BME280_temperature;BME280_humidity;BME280_pressure;Samples;Min_cycle;Max_cycle;Signal;HPM_P1;HPM_P2
2021/12/01 00:00:49;;;;;;;16.90;10.25;;;;;;;1.05;97.77;98124.88;1721837;83;27980;-73
2021/12/01 00:03:16;;;;;;;14.70;10.05;;;;;;;1.05;97.75;98132.08;1695916;84;25523;-73
2021/12/01 00:05:43;;;;;;;15.10;10.43;;;;;;;1.05;97.65;98133.41;1696059;84;25623;-72
2021/12/01 00:08:10;;;;;;;14.58;9.95;;;;;;;1.03;97.54;98143.58;1721763;83;25641;-74
2021/12/01 00:10:39;;;;;;;12.95;9.13;;;;;;;1.02;97.51;98152.64;1721765;83;25710;-74
2021/12/01 00:13:10;;;;;;;16.27;10.10;;;;;;;1.01;97.39;98165.17;1721819;83;27894;-74
2021/12/01 00:15:37;;;;;;;17.30;10.95;;;;;;;0.98;97.28;98172.97;1721736;83;25647;-74
2021/12/01 00:18:04;;;;;;;16.60;10.90;;;;;;;0.97;97.35;98181.50;1721752;83;25480;-74
2021/12/01 00:20:32;;;;;;;17.00;11.18;;;;;;;0.97;97.31;98194.81;1721688;83;25695;-74
2021/12/01 00:22:59;;;;;;;16.60;11.48;;;;;;;0.95;97.31;98202.28;1721807;83;25634;-74
2021/12/01 00:25:27;;;;;;;18.40;11.33;;;;;;;0.94;97.27;98210.05;1721824;83;27311;-73
2021/12/01 00:27:55;;;;;;;17.32;11.83;;;;;;;0.94;97.30;98216.70;1721575;83;25576;-73
2021/12/01 00:30:25;;;;;;;20.00;11.22;;;;;;;0.93;97.33;98220.44;1721816;82;25485;-73
2021/12/01 00:35:28;;;;;;;20.23;11.80;;;;;;;0.93;97.25;98231.08;1721754;83;25469;-73
2021/12/01 00:37:56;;;;;;;16.52;10.55;;;;;;;0.90;97.11;98243.64;1721626;83;27414;-73
2021/12/01 00:40:25;;;;;;;18.05;11.18;;;;;;;0.89;97.05;98250.07;1716853;83;25668;-73
2021/12/01 00:42:51;;;;;;;20.55;12.58;;;;;;;0.86;97.02;98262.08;1721754;83;25699;-72
2021/12/01 00:45:21;;;;;;;20.40;12.10;;;;;;;0.85;97.06;98271.17;1721640;83;25741;-74
2021/12/01 00:47:56;;;;;;;22.80;13.08;;;;;;;0.81;97.09;98272.82;1721659;83;25664;-74
2021/12/01 00:50:25;;;;;;;20.17;12.03;;;;;;;0.81;97.09;98279.47;1718725;83;27323;-74
2021/12/01 00:52:54;;;;;;;23.57;13.68;;;;;;;0.80;97.12;98288.56;1721628;83;25752;-74
2021/12/01 00:55:21;;;;;;;19.90;11.85;;;;;;;0.79;97.15;98306.15;1721904;83;25682;-74
2021/12/01 00:57:50;;;;;;;22.10;13.68;;;;;;;0.79;97.20;98309.59;1721661;83;25607;-74
2021/12/01 01:00:20;;;;;;;21.23;12.98;;;;;;;0.78;97.22;98315.20;1721798;83;25707;-73
2021/12/01 01:02:46;;;;;;;22.07;13.32;;;;;;;0.78;97.14;98332.50;1717296;83;33279;-73
2021/12/01 01:05:13;;;;;;;22.37;13.60;;;;;;;0.74;97.10;98334.96;1721603;83;25423;-73
2021/12/01 01:07:40;;;;;;;23.05;13.38;;;;;;;0.71;97.03;98341.64;1721690;83;25676;-73
2021/12/01 01:10:28;;;;;;;22.13;13.20;;;;;;;0.71;97.03;98355.50;1721542;83;25425;-73
2021/12/01 01:18:15;;;;;;;20.95;13.28;;;;;;;0.65;97.11;98364.11;1721634;83;25606;-73
2021/12/01 01:20:42;;;;;;;22.17;13.60;;;;;;;0.66;97.20;98368.88;1721624;83;25547;-73
2021/12/01 01:23:08;;;;;;;26.97;15.00;;;;;;;0.66;97.32;98380.86;1721700;83;25870;-73
2021/12/01 01:25:35;;;;;;;22.98;14.13;;;;;;;0.65;97.30;98388.61;1721738;83;25559;-73
2021/12/01 01:28:03;;;;;;;26.05;15.18;;;;;;;0.65;97.30;98400.03;1721668;83;27913;-74
2021/12/01 01:30:31;;;;;;;24.80;13.18;;;;;;;0.66;97.40;98400.81;1721526;83;26295;-73
2021/12/01 01:32:59;;;;;;;25.12;14.80;;;;;;;0.65;97.31;98407.23;1729625;82;25605;-73
2021/12/01 01:35:26;;;;;;;22.95;13.45;;;;;;;0.65;97.34;98411.23;1729895;82;25425;-73
2021/12/01 01:37:53;;;;;;;23.05;14.53;;;;;;;0.65;97.31;98417.88;1729901;82;25717;-73
2021/12/01 01:40:19;;;;;;;23.73;13.50;;;;;;;0.65;97.27;98418.66;1729968;82;27330;-73
2021/12/01 01:42:48;;;;;;;24.20;14.07;;;;;;;0.64;97.23;98421.06;1729888;82;25623;-73
2021/12/01 01:45:17;;;;;;;25.10;15.48;;;;;;;0.64;97.19;98429.59;1730000;82;25486;-73
2021/12/01 01:47:58;;;;;;;24.57;14.85;;;;;;;0.62;97.18;98436.53;1729956;82;25417;-73
2021/12/01 01:50:34;;;;;;;23.75;14.70;;;;;;;0.62;97.19;98434.42;1728602;82;25319;-73
2021/12/01 01:52:50;;;;;;;27.32;15.32;;;;;;;0.63;97.24;98443.97;1726780;82;27388;-73
2021/12/01 01:55:16;;;;;;;27.13;15.30;;;;;;;0.63;97.18;98456.75;1730017;82;25740;-73
2021/12/01 01:57:44;;;;;;;26.00;14.63;;;;;;;0.62;97.04;98465.02;1729964;82;25544;-73
2021/12/01 02:00:13;;;;;;;23.70;14.50;;;;;;;0.62;96.98;98469.79;1729859;82;25877;-73
2021/12/01 02:02:39;;;;;;;24.98;14.60;;;;;;;0.61;96.96;98481.50;1729938;82;25603;-73
2021/12/01 02:05:07;;;;;;;25.75;15.58;;;;;;;0.59;96.97;98487.66;1729933;82;28105;-73
2021/12/01 02:07:33;;;;;;;26.48;14.00;;;;;;;0.60;97.00;98489.25;1729840;82;25767;-73
2021/12/01 02:10:00;;;;;;;25.15;15.18;;;;;;;0.60;97.01;98492.46;1729855;82;25668;-73
2021/12/01 02:12:26;;;;;;;26.90;14.53;;;;;;;0.60;96.97;98500.44;1729966;82;25658;-73
2021/12/01 02:14:53;;;;;;;24.72;15.13;;;;;;;0.60;97.04;98509.75;1729974;82;25742;-73
2021/12/01 02:17:19;;;;;;;24.52;15.23;;;;;;;0.61;97.02;98522.75;1730018;82;27896;-73
2021/12/01 02:19:46;;;;;;;25.02;14.93;;;;;;;0.60;97.04;98532.38;1729841;82;25753;-73
2021/12/01 02:22:13;;;;;;;24.63;15.38;;;;;;;0.60;96.98;98539.80;1729969;82;25601;-73
2021/12/01 02:24:39;;;;;;;26.90;15.80;;;;;;;0.60;96.98;98551.78;1729980;82;25604;-72
2021/12/01 02:27:06;;;;;;;28.57;15.18;;;;;;;0.61;97.00;98556.00;1730037;82;25754;-72
2021/12/01 02:29:33;;;;;;;29.10;16.50;;;;;;;0.61;97.01;98558.67;1729988;82;28001;-73
2021/12/01 02:31:59;;;;;;;26.80;15.45;;;;;;;0.60;96.96;98574.40;1726072;82;25691;-72
2021/12/01 02:34:26;;;;;;;26.23;14.85;;;;;;;0.60;96.96;98579.72;1721657;83;25618;-72
2021/12/01 02:36:57;;;;;;;24.65;14.07;;;;;;;0.59;96.83;98587.98;1721479;83;25638;-72
2021/12/01 02:39:24;;;;;;;23.40;15.00;;;;;;;0.57;96.76;98589.59;1721648;83;25643;-72
2021/12/01 02:41:56;;;;;;;26.90;15.90;;;;;;;0.56;96.72;98601.30;1721618;83;27306;-72
2021/12/01 02:44:25;;;;;;;23.52;14.10;;;;;;;0.53;96.71;98611.98;1720254;83;25845;-72
2021/12/01 02:46:52;;;;;;;30.87;16.07;;;;;;;0.52;96.76;98614.93;1721896;83;25713;-72
2021/12/01 02:49:21;;;;;;;27.73;15.63;;;;;;;0.52;96.83;98620.25;1721633;83;25398;-72
2021/12/01 02:51:49;;;;;;;25.77;14.63;;;;;;;0.51;96.79;98627.45;1693674;83;25486;-72
2021/12/01 02:54:16;;;;;;;25.00;15.03;;;;;;;0.51;96.77;98636.77;1721685;83;27383;-72
2021/12/01 02:56:49;;;;;;;25.48;14.55;;;;;;;0.50;96.75;98643.14;1721443;83;25774;-72
2021/12/01 02:59:17;;;;;;;25.60;15.00;;;;;;;0.51;96.61;98654.05;1721607;83;25581;-72
2021/12/01 03:01:45;;;;;;;25.85;14.45;;;;;;;0.51;96.46;98665.22;1721612;83;25623;-72
2021/12/01 03:04:13;;;;;;;24.98;14.55;;;;;;;0.50;96.38;98660.98;1721759;83;25666;-72
2021/12/01 03:06:43;;;;;;;21.90;13.60;;;;;;;0.51;96.43;98666.03;1717090;83;28003;-72
2021/12/01 03:09:12;;;;;;;;;;;;;;;0.51;96.47;98671.34;1724177;83;25664;-72
2021/12/01 03:11:39;;;;;;;22.35;13.20;;;;;;;0.52;96.38;98684.11;1721787;83;25659;-72
2021/12/01 03:14:12;;;;;;;22.80;14.80;;;;;;;0.49;95.87;98695.30;1721643;83;25982;-72
2021/12/01 03:16:40;;;;;;;21.45;13.60;;;;;;;0.46;95.64;98695.34;1721713;83;25555;-72
2021/12/01 03:19:07;;;;;;;21.73;13.07;;;;;;;0.46;95.63;98694.02;1693882;83;27908;-72
2021/12/01 03:21:42;;;;;;;21.05;12.40;;;;;;;0.45;95.35;98698.28;1721639;83;25552;-72
2021/12/01 03:24:10;;;;;;;20.88;12.30;;;;;;;0.45;95.30;98700.94;1721840;83;25661;-71
2021/12/01 03:26:38;;;;;;;19.98;12.20;;;;;;;0.44;95.06;98693.48;1703488;83;25488;-70
2021/12/01 03:29:07;;;;;;;17.85;11.30;;;;;;;0.43;94.82;98689.25;1667961;86;25702;-70
2021/12/01 03:31:34;;;;;;;;;;;;;;;0.40;94.51;98687.69;1662755;85;27838;-71
2021/12/01 03:34:00;;;;;;;19.42;11.15;;;;;;;0.37;94.13;98689.03;1687085;84;25455;-71
2021/12/01 03:36:27;;;;;;;17.82;10.95;;;;;;;0.31;93.76;98698.94;1682615;85;25769;-71
2021/12/01 03:38:55;;;;;;;18.50;11.05;;;;;;;0.26;93.60;98698.98;1687279;85;25630;-71
2021/12/01 03:41:22;;;;;;;18.77;10.95;;;;;;;0.22;93.38;98704.58;1687274;85;25702;-71
2021/12/01 03:43:48;;;;;;;17.25;11.18;;;;;;;0.15;93.13;98707.59;1687310;85;26862;-71
2021/12/01 03:46:16;;;;;;;18.00;11.15;;;;;;;0.10;92.97;98714.28;1687256;85;25594;-71
2021/12/01 03:48:42;;;;;;;16.60;10.05;;;;;;;0.04;92.88;98715.38;1687298;85;25732;-71
2021/12/01 03:51:09;;;;;;;17.32;11.38;;;;;;;-0.01;92.87;98718.08;1682689;85;25710;-71
2021/12/01 03:53:36;;;;;;;17.23;11.38;;;;;;;-0.07;92.80;98721.31;1687438;85;25717;-71
2021/12/01 03:56:02;;;;;;;16.32;11.35;;;;;;;-0.13;92.75;98730.38;1687305;85;26910;-71
2021/12/01 03:58:29;;;;;;;19.35;11.20;;;;;;;-0.20;92.81;98736.00;1687268;85;25485;-71
2021/12/01 04:00:56;;;;;;;21.60;12.60;;;;;;;-0.24;92.75;98740.81;1687398;84;25660;-71
2021/12/01 04:03:22;;;;;;;19.67;11.88;;;;;;;-0.29;92.86;98746.16;1687809;85;25467;-70
2021/12/01 04:05:49;;;;;;;24.87;14.50;;;;;;;-0.34;92.91;98756.81;1687584;85;26269;-70
2021/12/01 04:08:15;;;;;;;35.55;19.07;;;;;;;-0.40;92.95;98762.16;1687740;85;27437;-70
2021/12/01 04:10:42;;;;;;;30.43;16.62;;;;;;;-0.44;93.06;98769.09;1687408;85;25706;-70
2021/12/01 04:13:09;;;;;;;28.60;15.45;;;;;;;-0.49;93.05;98765.14;1687200;85;25718;-69
2021/12/01 04:15:36;;;;;;;23.75;13.72;;;;;;;-0.53;92.99;98775.23;1687233;85;26232;-69
2021/12/01 04:18:03;;;;;;;21.65;12.70;;;;;;;-0.57;93.16;98767.03;1687197;85;25613;-69
2021/12/01 04:20:30;;;;;;;18.70;11.50;;;;;;;-0.61;93.00;98780.06;1687284;85;27310;-69
2021/12/01 04:22:56;;;;;;;18.70;10.90;;;;;;;-0.63;92.96;98780.05;1687152;85;25457;-69
2021/12/01 04:25:23;;;;;;;18.48;11.10;;;;;;;-0.68;93.22;98782.22;1687327;85;25669;-69
2021/12/01 04:27:50;;;;;;;17.90;11.03;;;;;;;-0.71;93.22;98789.94;1687163;85;25651;-69
2021/12/01 04:30:21;;;;;;;18.15;10.70;;;;;;;-0.76;93.01;98790.20;1687206;85;25771;-69
2021/12/01 04:32:47;;;;;;;18.75;12.07;;;;;;;-0.80;93.07;98794.47;1687225;84;28092;-69
2021/12/01 04:35:18;;;;;;;19.42;11.68;;;;;;;-0.83;93.31;98798.20;1687226;85;25560;-69
2021/12/01 04:37:47;;;;;;;21.68;12.13;;;;;;;-0.87;93.47;98797.95;1687307;85;25665;-69
2021/12/01 04:40:15;;;;;;;23.62;13.40;;;;;;;-0.90;93.58;98803.80;1687258;85;26182;-69
2021/12/01 04:42:42;;;;;;;19.48;11.68;;;;;;;-0.92;93.57;98801.12;1687293;85;25734;-69
2021/12/01 04:45:18;;;;;;;22.60;12.20;;;;;;;-0.96;93.50;98799.55;1687308;85;27247;-69
2021/12/01 04:47:50;;;;;;;21.12;12.37;;;;;;;-0.99;93.49;98806.72;1687248;85;25698;-69
2021/12/01 04:50:21;;;;;;;31.93;16.85;;;;;;;-1.04;93.56;98798.25;1687278;85;25721;-69
2021/12/01 04:52:49;;;;;;;32.98;16.73;;;;;;;-1.06;93.64;98811.52;1687192;85;25691;-68
2021/12/01 04:55:16;;;;;;;35.25;18.00;;;;;;;-1.09;93.79;98814.19;1687389;85;25694;-68
2021/12/01 04:57:46;;;;;;;46.65;21.40;;;;;;;-1.11;93.76;98815.50;1687243;85;27897;-68
2021/12/01 05:00:22;;;;;;;45.65;22.05;;;;;;;-1.14;93.83;98814.20;1687152;85;25741;-68
2021/12/01 05:02:49;;;;;;;58.63;27.55;;;;;;;-1.16;93.86;98823.75;1686502;85;25825;-68
2021/12/01 05:05:16;;;;;;;41.33;19.95;;;;;;;-1.20;93.74;98829.31;1687186;85;26167;-68
2021/12/01 05:07:44;;;;;;;30.60;16.50;;;;;;;-1.21;93.88;98833.55;1687262;85;25720;-68
2021/12/01 05:10:11;;;;;;;23.90;13.62;;;;;;;-1.24;93.69;98837.55;1687168;85;27300;-68
2021/12/01 05:12:39;;;;;;;24.75;13.35;;;;;;;-1.27;93.53;98839.40;1659809;85;25599;-68
2021/12/01 05:15:06;;;;;;;25.00;13.32;;;;;;;-1.28;93.86;98839.12;1687232;85;25647;-68
2021/12/01 05:17:33;;;;;;;25.57;14.00;;;;;;;-1.30;93.85;98838.60;1687217;85;25684;-68
2021/12/01 05:20:01;;;;;;;27.22;14.10;;;;;;;-1.32;93.95;98843.38;1687228;85;25690;-68
2021/12/01 05:22:28;;;;;;;25.68;13.85;;;;;;;-1.33;94.01;98847.91;1687273;85;27400;-68
2021/12/01 05:24:54;;;;;;;26.50;13.65;;;;;;;-1.35;94.13;98838.60;1687263;85;25393;-68
2021/12/01 05:27:21;;;;;;;25.25;14.10;;;;;;;-1.35;94.18;98846.56;1687234;84;25591;-68
2021/12/01 05:29:49;;;;;;;26.77;14.40;;;;;;;-1.37;94.23;98846.03;1687190;85;26370;-68
2021/12/01 05:32:17;;;;;;;28.17;14.80;;;;;;;-1.39;94.20;98844.97;1687207;85;25607;-68
2021/12/01 05:34:43;;;;;;;30.35;16.30;;;;;;;-1.40;94.34;98851.86;1690855;84;27420;-68
2021/12/01 05:37:11;;;;;;;26.37;14.25;;;;;;;-1.41;94.41;98859.03;1692584;84;25719;-68
2021/12/01 05:39:41;;;;;;;30.27;15.40;;;;;;;-1.41;94.66;98858.25;1692682;84;25653;-68
2021/12/01 05:42:07;;;;;;;26.97;14.83;;;;;;;-1.42;94.72;98861.95;1692465;84;25631;-68
2021/12/01 05:44:36;;;;;;;29.60;15.30;;;;;;;-1.43;94.70;98870.95;1692728;84;25601;-68
2021/12/01 05:47:04;;;;;;;26.97;15.70;;;;;;;-1.44;94.58;98871.49;1692654;84;27338;-68
2021/12/01 05:49:31;;;;;;;29.07;14.93;;;;;;;-1.45;94.61;98867.78;1692631;84;25559;-68
2021/12/01 05:52:00;;;;;;;26.75;14.83;;;;;;;-1.45;94.64;98867.23;1692632;84;25800;-68
2021/12/01 05:54:27;;;;;;;29.40;15.68;;;;;;;-1.47;94.53;98866.71;1692699;84;25651;-68
2021/12/01 05:56:54;;;;;;;29.65;15.60;;;;;;;-1.48;94.63;98860.34;1692532;84;25634;-68
2021/12/01 05:59:20;;;;;;;29.75;14.28;;;;;;;-1.47;94.65;98873.34;1692382;84;28146;-68
2021/12/01 06:01:47;;;;;;;29.75;15.60;;;;;;;-1.48;94.65;98881.05;1692516;84;25687;-68
2021/12/01 06:04:14;;;;;;;27.13;14.85;;;;;;;-1.49;94.40;98890.05;1692512;84;25579;-68
2021/12/01 06:06:40;;;;;;;36.33;16.27;;;;;;;-1.50;94.56;98892.43;1692585;84;27789;-68
2021/12/01 06:09:07;;;;;;;28.65;14.68;;;;;;;-1.49;94.72;98897.23;1692790;84;25646;-68
2021/12/01 06:11:34;;;;;;;28.23;13.80;;;;;;;-1.51;94.83;98894.30;1692704;84;27384;-68
2021/12/01 06:14:02;;;;;;;25.90;14.83;;;;;;;-1.49;94.77;98905.97;1692387;84;25708;-68
2021/12/01 06:16:29;;;;;;;26.68;14.70;;;;;;;-1.49;94.84;98903.31;1692626;84;25722;-68
2021/12/01 06:18:57;;;;;;;27.37;14.50;;;;;;;-1.48;94.85;98900.12;1692499;84;25666;-68
2021/12/01 06:21:23;;;;;;;27.80;14.80;;;;;;;-1.47;95.02;98901.19;1692725;84;25638;-68
2021/12/01 06:23:52;;;;;;;27.00;14.15;;;;;;;-1.43;95.22;98897.48;1692721;84;27919;-68
2021/12/01 06:26:19;;;;;;;28.87;15.08;;;;;;;-1.42;95.28;98893.78;1692723;84;25615;-68
2021/12/01 06:28:47;;;;;;;28.77;14.83;;;;;;;-1.40;95.27;98883.70;1692691;84;25680;-68
2021/12/01 06:31:14;;;;;;;22.53;11.83;;;;;;;-1.37;95.24;98895.90;1692958;84;26176;-68
2021/12/01 06:33:41;;;;;;;27.22;15.05;;;;;;;-1.36;95.26;98888.76;1691937;84;25674;-68
2021/12/01 06:36:08;;;;;;;28.30;14.25;;;;;;;-1.34;95.20;98890.06;1687116;85;27372;-68
2021/12/01 06:38:34;;;;;;;25.95;14.23;;;;;;;-1.34;95.11;98895.37;1687123;85;25594;-68
2021/12/01 06:41:02;;;;;;;27.65;14.50;;;;;;;-1.32;95.12;98901.20;1687212;85;25607;-68
2021/12/01 06:43:28;;;;;;;26.10;14.55;;;;;;;-1.30;95.18;98910.77;1687136;85;25657;-68
2021/12/01 06:45:56;;;;;;;33.08;16.48;;;;;;;-1.27;95.36;98913.69;1687113;85;25868;-68
2021/12/01 06:48:23;;;;;;;28.92;15.45;;;;;;;-1.24;95.45;98909.19;1687134;85;27413;-67
2021/12/01 06:50:49;;;;;;;26.90;15.23;;;;;;;-1.19;95.50;98915.00;1687044;85;25652;-66
2021/12/01 06:53:17;;;;;;;32.35;15.60;;;;;;;-1.16;95.52;98918.45;1687219;85;25755;-66
2021/12/01 06:55:44;;;;;;;26.23;14.85;;;;;;;-1.13;95.51;98917.94;1687107;84;25643;-68
2021/12/01 06:58:13;;;;;;;26.73;15.35;;;;;;;-1.10;95.51;98929.35;1687097;85;25670;-68
2021/12/01 07:00:40;;;;;;;32.75;15.40;;;;;;;-1.07;95.48;98921.38;1687260;85;27310;-68
2021/12/01 07:03:07;;;;;;;23.67;14.40;;;;;;;-1.05;95.42;98928.56;1686911;85;25661;-68
2021/12/01 07:05:34;;;;;;;28.38;15.13;;;;;;;-1.02;95.45;98937.30;1687116;85;25668;-67
2021/12/01 07:08:01;;;;;;;28.75;15.60;;;;;;;-0.99;95.60;98944.23;1687123;85;25626;-67
2021/12/01 07:10:27;;;;;;;29.30;15.00;;;;;;;-0.98;95.51;98935.19;1687117;85;25302;-67
2021/12/01 07:12:57;;;;;;;28.23;15.72;;;;;;;-0.96;95.57;98931.73;1702665;83;27318;-68
2021/12/01 07:15:24;;;;;;;26.45;14.60;;;;;;;-0.93;95.57;98933.61;1709060;83;25696;-69
2021/12/01 07:17:50;;;;;;;24.07;13.88;;;;;;;-0.89;95.76;98934.66;1697367;84;25616;-68
2021/12/01 07:20:17;;;;;;;27.80;15.53;;;;;;;-0.89;95.71;98931.47;1703433;84;27832;-67
2021/12/01 07:22:44;;;;;;;29.35;15.80;;;;;;;-0.85;95.66;98937.85;1685827;84;25825;-67
2021/12/01 07:25:12;;;;;;;28.27;15.72;;;;;;;-0.81;95.75;98941.55;1685785;85;27409;-67
2021/12/01 07:27:40;;;;;;;25.75;14.43;;;;;;;-0.76;95.92;98935.45;1688458;84;25757;-67
2021/12/01 07:30:09;;;;;;;28.50;16.50;;;;;;;-0.71;95.90;98947.94;1709306;83;25786;-67
2021/12/01 07:32:36;;;;;;;25.40;15.55;;;;;;;-0.69;95.82;98951.11;1709316;83;25660;-67
2021/12/01 07:35:03;;;;;;;29.00;16.17;;;;;;;-0.65;95.81;98942.86;1709245;84;25917;-68
2021/12/01 07:37:29;;;;;;;26.42;14.90;;;;;;;-0.60;95.89;98933.56;1709191;84;27360;-68
2021/12/01 07:39:56;;;;;;;30.43;16.35;;;;;;;-0.57;95.84;98948.97;1709076;84;25755;-67
2021/12/01 07:42:23;;;;;;;29.98;17.57;;;;;;;-0.54;95.81;98948.44;1709332;83;25643;-68
2021/12/01 07:44:50;;;;;;;33.23;18.55;;;;;;;-0.51;95.75;98948.42;1709288;84;25727;-68
2021/12/01 07:47:16;;;;;;;34.43;19.45;;;;;;;-0.49;95.74;98956.94;1709329;83;25642;-68
2021/12/01 07:49:43;;;;;;;34.90;17.92;;;;;;;-0.47;95.57;98947.63;1709409;83;27430;-68
2021/12/01 07:52:10;;;;;;;31.10;17.50;;;;;;;-0.47;95.45;98941.52;1709212;83;25659;-68
2021/12/01 07:54:39;;;;;;;33.40;17.95;;;;;;;-0.46;95.29;98939.11;1709337;83;25708;-67
2021/12/01 07:57:07;;;;;;;27.87;16.17;;;;;;;-0.45;95.36;98939.39;1709442;83;34805;-68
2021/12/01 07:59:35;;;;;;;32.73;17.42;;;;;;;-0.39;95.47;98936.45;1709367;83;25645;-68
2021/12/01 08:02:02;;;;;;;32.00;17.57;;;;;;;-0.08;97.35;98933.70;1709166;83;27333;-68
2021/12/01 08:04:29;;;;;;;31.20;17.30;;;;;;;0.15;97.42;98937.61;1709147;83;25742;-68
2021/12/01 08:06:56;;;;;;;36.90;19.40;;;;;;;0.40;97.49;98933.76;1709236;83;25735;-68
2021/12/01 08:09:24;;;;;;;37.90;18.75;;;;;;;0.55;97.00;98936.33;1709143;83;27759;-68
2021/12/01 08:11:53;;;;;;;33.98;18.57;;;;;;;0.60;95.80;98931.52;1709371;83;25644;-68
2021/12/01 08:14:20;;;;;;;36.58;19.80;;;;;;;0.65;95.57;98930.94;1709298;83;27928;-69
2021/12/01 08:16:47;;;;;;;40.98;19.87;;;;;;;0.71;95.56;98925.82;1709000;83;26236;-68
2021/12/01 08:19:15;;;;;;;39.78;20.12;;;;;;;0.73;94.70;98922.88;1709493;83;25708;-68
2021/12/01 08:21:46;;;;;;;37.85;21.23;;;;;;;0.74;93.99;98924.48;1709418;83;25626;-68
2021/12/01 08:24:12;;;;;;;36.37;19.40;;;;;;;0.89;94.81;98921.71;1709130;83;25835;-69
2021/12/01 08:26:40;;;;;;;33.48;19.40;;;;;;;1.08;95.82;98927.14;1709370;83;27333;-69
2021/12/01 08:29:09;;;;;;;34.65;19.87;;;;;;;1.53;97.18;98909.67;1709318;83;25613;-69
2021/12/01 08:31:35;;;;;;;37.00;19.07;;;;;;;1.90;96.14;98919.42;1709610;83;25646;-69
2021/12/01 08:34:02;;;;;;;33.50;20.10;;;;;;;2.13;95.33;98924.45;1709326;83;25797;-69
2021/12/01 08:36:29;;;;;;;30.88;19.07;;;;;;;2.20;93.49;98924.92;1706910;83;25682;-69
2021/12/01 08:38:55;;;;;;;32.40;18.87;;;;;;;2.27;93.06;98920.02;1706696;84;27396;-69
2021/12/01 08:41:22;;;;;;;29.95;18.15;;;;;;;2.31;92.51;98920.23;1706680;84;25662;-69
2021/12/01 08:43:50;;;;;;;31.68;18.23;;;;;;;2.41;92.69;98919.55;1706888;84;25687;-69
2021/12/01 08:46:17;;;;;;;31.85;19.15;;;;;;;2.78;95.06;98921.17;1706841;84;25770;-69
2021/12/01 08:48:45;;;;;;;28.98;17.62;;;;;;;3.15;95.45;98918.98;1706768;84;25651;-69
2021/12/01 08:51:12;;;;;;;28.38;18.07;;;;;;;3.59;95.29;98910.73;1706897;84;27382;-69
2021/12/01 08:53:41;;;;;;;28.98;16.90;;;;;;;3.68;92.40;98908.41;1706660;84;25741;-69
2021/12/01 08:56:10;;;;;;;30.20;17.37;;;;;;;3.77;90.48;98903.72;1707055;84;25677;-70
2021/12/01 08:58:36;;;;;;;29.37;18.20;;;;;;;3.62;89.25;98907.47;1707070;84;26241;-69
2021/12/01 09:01:04;;;;;;;29.27;17.23;;;;;;;3.53;89.02;98905.47;1706296;84;25497;-69
2021/12/01 09:03:30;;;;;;;31.30;18.42;;;;;;;3.58;89.51;98893.90;1706419;84;27346;-69
2021/12/01 09:05:57;;;;;;;27.40;18.15;;;;;;;3.76;89.86;98892.76;1706290;84;26334;-70
2021/12/01 09:08:26;;;;;;;27.02;17.42;;;;;;;4.19;90.20;98889.73;1706372;84;25722;-70
2021/12/01 09:10:57;;;;;;;33.73;18.12;;;;;;;4.14;87.68;98888.50;1706223;84;25804;-67
2021/12/01 09:13:27;;;;;;;29.98;18.92;;;;;;;4.29;88.82;98884.16;1706338;84;25759;-70
2021/12/01 09:15:56;;;;;;;;;;;;;;;4.56;89.58;98882.50;1715802;83;27324;-69
2021/12/01 09:18:27;;;;;;;30.90;18.07;;;;;;;4.73;88.10;98881.84;1680467;84;34965;-69
2021/12/01 09:20:54;;;;;;;25.12;15.98;;;;;;;4.55;86.73;98885.73;1680064;84;25444;-70
2021/12/01 09:23:23;;;;;;;28.87;17.77;;;;;;;4.29;85.51;98884.16;1679417;85;26193;-70
2021/12/01 09:25:50;;;;;;;;;;;;;;;4.12;85.40;98890.16;1709004;84;25774;-70
2021/12/01 09:28:22;;;;;;;27.60;18.00;;;;;;;3.87;84.63;98880.77;1706335;84;27345;-70
2021/12/01 09:30:51;;;;;;;28.10;17.17;;;;;;;3.61;84.80;98882.62;1706541;84;25737;-69
2021/12/01 09:33:17;;;;;;;25.37;16.85;;;;;;;3.43;84.96;98883.49;1679702;84;25817;-70
2021/12/01 09:35:46;;;;;;;26.33;16.48;;;;;;;3.27;84.93;98874.94;1689923;83;25668;-71
2021/12/01 09:38:15;;;;;;;24.43;16.48;;;;;;;3.15;85.12;98872.73;1712590;83;25628;-70
2021/12/01 09:40:48;;;;;;;25.08;16.37;;;;;;;3.06;85.35;98874.52;1700357;84;27424;-69
2021/12/01 09:43:17;;;;;;;30.72;17.48;;;;;;;2.99;85.86;98877.56;1712717;83;25650;-71
2021/12/01 09:45:46;;;;;;;28.25;17.98;;;;;;;2.87;85.56;98870.56;1712797;83;25671;-69
2021/12/01 09:48:12;;;;;;;29.82;17.62;;;;;;;2.71;86.31;98864.13;1712732;83;25696;-69
2021/12/01 09:50:39;;;;;;;27.58;16.87;;;;;;;2.58;86.42;98858.20;1712813;83;25584;-69
2021/12/01 09:53:07;;;;;;;27.13;17.35;;;;;;;2.49;86.71;98864.73;1712779;83;27254;-68
2021/12/01 09:55:34;;;;;;;27.48;16.23;;;;;;;2.39;87.00;98854.22;1712545;83;25707;-68
2021/12/01 09:58:08;;;;;;;28.47;17.75;;;;;;;2.32;86.97;98858.58;1712570;83;25684;-68
2021/12/01 10:00:38;;;;;;;27.15;16.73;;;;;;;2.28;87.44;98852.22;1712548;83;25675;-69
2021/12/01 10:03:06;;;;;;;29.50;17.02;;;;;;;2.24;87.82;98851.22;1712721;83;25391;-68
2021/12/01 10:06:06;;;;;;;27.15;16.52;;;;;;;2.18;87.65;98849.69;1712648;83;27399;-68
2021/12/01 10:08:38;;;;;;;28.55;17.62;;;;;;;2.13;88.13;98847.09;1700202;84;25920;-68
2021/12/01 10:11:10;;;;;;;26.75;15.80;;;;;;;2.04;88.11;98841.10;1712434;83;25660;-68
2021/12/01 10:13:43;;;;;;;33.02;17.67;;;;;;;1.99;88.37;98841.17;1712644;83;26272;-68
2021/12/01 10:16:13;;;;;;;28.57;16.40;;;;;;;1.94;88.29;98842.56;1712848;83;25486;-69
2021/12/01 10:18:47;;;;;;;28.92;17.70;;;;;;;1.90;88.55;98836.75;1712789;83;27310;-69
2021/12/01 10:21:25;;;;;;;31.20;17.10;;;;;;;1.84;88.64;98825.38;1711224;83;25731;-69
2021/12/01 10:23:56;;;;;;;29.15;18.20;;;;;;;1.82;88.98;98829.66;1712817;83;25675;-69
2021/12/01 10:26:31;;;;;;;33.67;18.17;;;;;;;1.81;89.26;98825.39;1712596;83;25660;-68
2021/12/01 10:29:02;;;;;;;34.25;17.40;;;;;;;1.81;89.12;98829.94;1711947;83;25766;-69
2021/12/01 10:31:44;;;;;;;31.80;17.80;;;;;;;1.75;89.04;98827.86;1712238;83;27361;-69
2021/12/01 10:34:35;;;;;;;30.60;17.98;;;;;;;1.71;89.23;98827.40;1712623;83;25644;-69
2021/12/01 10:37:26;;;;;;;31.10;18.20;;;;;;;1.66;89.40;98826.37;1720768;83;25702;-69
2021/12/01 10:40:23;;;;;;;30.77;17.57;;;;;;;1.64;89.60;98823.75;1721629;83;25726;-70
2021/12/01 10:43:03;;;;;;;31.07;17.75;;;;;;;1.60;89.66;98820.05;1721675;83;25744;-68
2021/12/01 10:45:43;;;;;;;32.40;18.67;;;;;;;1.59;89.91;98820.59;1721669;83;27535;-68
2021/12/01 10:48:20;;;;;;;33.10;18.42;;;;;;;1.61;90.21;98824.31;1721580;83;25729;-69
2021/12/01 10:50:47;;;;;;;33.85;18.82;;;;;;;1.61;90.28;98820.31;1721733;83;25572;-68
2021/12/01 10:53:18;;;;;;;30.88;17.87;;;;;;;1.57;90.14;98821.43;1721670;83;25728;-68
2021/12/01 10:55:51;;;;;;;30.20;17.90;;;;;;;1.56;90.29;98812.38;1721643;83;25669;-68
2021/12/01 10:58:19;;;;;;;27.37;17.00;;;;;;;1.57;90.54;98809.44;1721126;83;27517;-69
2021/12/01 11:00:49;;;;;;;30.08;17.07;;;;;;;1.58;90.65;98811.55;1721548;83;25626;-69
2021/12/01 11:03:26;;;;;;;31.17;17.25;;;;;;;1.57;90.65;98806.77;1721725;83;25567;-71
2021/12/01 11:06:14;;;;;;;28.95;17.55;;;;;;;1.60;90.94;98807.53;1721688;83;25592;-69
2021/12/01 11:08:42;;;;;;;29.07;16.97;;;;;;;1.59;90.67;98807.27;1721730;83;25626;-68
2021/12/01 11:11:13;;;;;;;28.27;16.95;;;;;;;1.61;90.64;98801.66;1721723;83;27334;-69
2021/12/01 11:13:43;;;;;;;29.07;17.12;;;;;;;1.60;90.70;98798.20;1721455;83;25637;-70
2021/12/01 11:16:12;;;;;;;33.95;18.27;;;;;;;1.59;90.59;98803.27;1721362;83;25690;-69
2021/12/01 11:18:43;;;;;;;32.33;17.65;;;;;;;1.63;90.81;98814.16;1721713;83;25677;-69
2021/12/01 11:21:15;;;;;;;31.10;18.73;;;;;;;1.68;91.00;98807.42;1721837;83;25455;-70
2021/12/01 11:23:44;;;;;;;30.02;17.45;;;;;;;1.67;90.44;98797.31;1721382;83;27375;-69
2021/12/01 11:26:14;;;;;;;;;;;;;;;1.67;90.57;98789.86;1724302;83;25572;-68
2021/12/01 11:29:00;;;;;;;28.07;17.23;;;;;;;1.67;90.62;98783.98;1696121;84;25710;-69
2021/12/01 11:31:45;;;;;;;29.10;16.77;;;;;;;1.67;90.57;98783.20;1721827;83;25619;-71
2021/12/01 11:34:16;;;;;;;33.58;18.75;;;;;;;1.64;90.52;98772.55;1722120;83;25549;-71
2021/12/01 11:36:52;;;;;;;32.08;18.62;;;;;;;1.62;90.30;98778.72;1721764;83;27456;-71
2021/12/01 11:39:29;;;;;;;34.40;19.60;;;;;;;1.61;90.49;98771.01;1721542;83;25812;-67